Time;durP1;ratioP1;P1;durP2;ratioP2;P2;SDS_P1;SDS_P2;PMS_P1;PMS_P2;Temp;Humidity;BMP_temperature;BMP_pressure;BME280_temperature;BME280_humidity;BME280_pressure;Samples;Min_cycle;Max_cycle;Signal;HPM_P1;HPM_P2
2021/12/06 00:00:53;;;;;;;7.05;2.80;;;;;;;;;;5090737;28;20409;-68
2021/12/06 00:03:21;;;;;;;8.45;3.22;;;;;;;;;;5090799;28;20028;-68
2021/12/06 00:05:47;;;;;;;5.95;2.95;;;;;;;;;;5091207;28;20032;-69
2021/12/06 00:08:13;;;;;;;5.43;2.60;;;;;;;;;;5091574;28;20032;-69
2021/12/06 00:10:40;;;;;;;7.80;2.30;;;;;;;;;;5078946;28;20042;-69
2021/12/06 00:13:06;;;;;;;3.95;1.33;;;;;;;;;;5090288;28;20040;-67
2021/12/06 00:15:33;;;;;;;3.20;1.38;;;;;;;;;;5090858;28;20164;-69
2021/12/06 00:18:00;;;;;;;4.00;1.50;;;;;;;;;;5068190;28;20055;-69
2021/12/06 00:20:26;;;;;;;3.05;1.20;;;;;;;;;;5090705;28;20363;-67
2021/12/06 00:22:52;;;;;;;1.42;0.82;;;;;;;;;;5092912;28;20028;-69
2021/12/06 00:25:19;;;;;;;0.60;0.47;;;;;;;;;;5093133;28;20381;-66
2021/12/06 00:27:45;;;;;;;2.05;1.30;;;;;;;;;;5090928;28;20111;-67
2021/12/06 00:30:14;;;;;;;2.58;0.95;;;;;;;;;;5090525;28;20176;-67
2021/12/06 00:32:41;;;;;;;6.25;2.83;;;;;;;;;;5090404;28;20141;-68
2021/12/06 00:35:12;;;;;;;4.32;1.55;;;;;;;;;;5091656;28;20036;-67
2021/12/06 00:37:44;;;;;;;5.40;2.67;;;;;;;;;;5093341;28;20093;-67
2021/12/06 00:40:11;;;;;;;6.60;2.72;;;;;;;;;;5076983;28;20114;-67
2021/12/06 00:42:37;;;;;;;3.03;1.30;;;;;;;;;;5085845;28;20031;-67
2021/12/06 00:45:06;;;;;;;3.42;1.50;;;;;;;;;;5090282;28;20024;-67
2021/12/06 00:47:32;;;;;;;2.20;1.00;;;;;;;;;;5089840;28;20725;-67
2021/12/06 00:49:58;;;;;;;2.13;0.93;;;;;;;;;;5084811;28;20051;-67
2021/12/06 00:52:24;;;;;;;1.13;0.70;;;;;;;;;;5091529;28;20031;-67
2021/12/06 00:54:51;;;;;;;1.77;0.95;;;;;;;;;;5090277;28;20066;-67
2021/12/06 00:57:17;;;;;;;3.50;1.00;;;;;;;;;;5090008;28;20092;-68
2021/12/06 00:59:45;;;;;;;2.15;0.90;;;;;;;;;;5090638;28;20017;-67
2021/12/06 01:02:12;;;;;;;4.53;1.50;;;;;;;;;;5072752;28;20063;-68
2021/12/06 01:04:39;;;;;;;3.53;1.60;;;;;;;;;;5092859;28;20443;-68
2021/12/06 01:07:06;;;;;;;2.72;1.08;;;;;;;;;;5089943;28;20023;-68
2021/12/06 01:09:32;;;;;;;4.07;1.50;;;;;;;;;;5084091;28;20396;-68
2021/12/06 01:11:58;;;;;;;2.08;1.13;;;;;;;;;;5079607;28;20036;-68
2021/12/06 01:14:24;;;;;;;2.42;1.25;;;;;;;;;;5090058;28;20032;-68
2021/12/06 01:16:50;;;;;;;2.97;1.30;;;;;;;;;;5092938;28;20154;-68
2021/12/06 01:19:16;;;;;;;2.08;0.90;;;;;;;;;;5087314;28;20035;-68
2021/12/06 01:21:49;;;;;;;4.50;1.17;;;;;;;;;;5085059;28;20082;-68
2021/12/06 01:24:20;;;;;;;1.52;0.77;;;;;;;;;;5089631;28;20041;-67
2021/12/06 01:32:15;;;;;;;1.20;0.68;;;;;;;;;;5091948;28;20485;-67
2021/12/06 01:40:10;;;;;;;4.15;2.10;;;;;;;;;;5078440;28;20067;-67
2021/12/06 01:42:36;;;;;;;7.05;2.03;;;;;;;;;;5085650;28;20020;-67
2021/12/06 01:45:04;;;;;;;2.25;1.08;;;;;;;;;;5088729;28;20028;-68
2021/12/06 01:47:32;;;;;;;1.27;0.73;;;;;;;;;;5089521;28;20361;-67
2021/12/06 01:49:58;;;;;;;1.50;0.30;;;;;;;;;;5083281;28;20123;-67
2021/12/06 01:52:32;;;;;;;0.90;0.40;;;;;;;;;;5090193;28;20110;-67
2021/12/06 01:54:58;;;;;;;2.72;1.50;;;;;;;;;;5088655;28;20400;-67
2021/12/06 01:57:25;;;;;;;2.70;1.23;;;;;;;;;;5089360;28;20444;-67
2021/12/06 01:59:53;;;;;;;2.78;1.45;;;;;;;;;;5089524;28;20023;-67
2021/12/06 02:02:19;;;;;;;3.38;1.00;;;;;;;;;;5088394;28;20088;-67
2021/12/06 02:04:45;;;;;;;2.75;1.25;;;;;;;;;;5092467;28;20020;-68
2021/12/06 02:07:15;;;;;;;7.15;3.03;;;;;;;;;;5088611;28;20712;-67
2021/12/06 02:09:42;;;;;;;2.38;1.27;;;;;;;;;;5081567;28;20408;-67
2021/12/06 02:12:08;;;;;;;3.45;1.20;;;;;;;;;;5080001;28;20040;-67
2021/12/06 02:19:33;;;;;;;2.55;1.30;;;;;;;;;;5085030;28;20043;-67
2021/12/06 02:22:00;;;;;;;4.72;1.80;;;;;;;;;;5086546;28;20427;-67
2021/12/06 02:24:26;;;;;;;1.80;1.15;;;;;;;;;;5088530;28;20028;-68
2021/12/06 02:26:53;;;;;;;1.48;1.05;;;;;;;;;;5088663;28;20020;-67
2021/12/06 02:29:19;;;;;;;1.77;0.80;;;;;;;;;;5088659;28;20111;-67
2021/12/06 02:31:46;;;;;;;1.50;1.08;;;;;;;;;;5091994;28;20449;-67
2021/12/06 02:34:12;;;;;;;5.78;1.92;;;;;;;;;;5089986;28;20119;-68
2021/12/06 02:36:38;;;;;;;5.68;1.73;;;;;;;;;;5087976;28;20129;-67
2021/12/06 02:39:09;;;;;;;3.33;1.70;;;;;;;;;;5086416;28;20025;-67
2021/12/06 02:41:35;;;;;;;3.53;1.33;;;;;;;;;;5075039;28;20021;-67
2021/12/06 02:44:01;;;;;;;1.52;0.70;;;;;;;;;;5090121;28;20032;-67
2021/12/06 02:46:27;;;;;;;3.00;1.42;;;;;;;;;;5089708;28;20050;-67
2021/12/06 02:48:53;;;;;;;3.35;1.27;;;;;;;;;;5087226;28;20020;-67
2021/12/06 02:51:20;;;;;;;1.83;1.20;;;;;;;;;;5080868;28;20082;-67
2021/12/06 02:53:46;;;;;;;1.92;1.20;;;;;;;;;;5088099;28;20082;-67
2021/12/06 02:56:39;;;;;;;3.35;1.60;;;;;;;;;;5088484;28;20017;-67
2021/12/06 02:59:06;;;;;;;3.55;1.30;;;;;;;;;;5086955;28;20032;-67
2021/12/06 03:01:35;;;;;;;2.08;1.20;;;;;;;;;;5090613;28;20051;-68
2021/12/06 03:04:01;;;;;;;3.50;1.20;;;;;;;;;;5080632;28;20076;-68
2021/12/06 03:06:28;;;;;;;2.70;1.17;;;;;;;;;;5081949;28;20020;-67
2021/12/06 03:09:05;;;;;;;3.60;1.58;;;;;;;;;;5087817;28;20016;-67
2021/12/06 03:11:36;;;;;;;2.67;1.40;;;;;;;;;;5073389;28;20020;-68
2021/12/06 03:14:02;;;;;;;1.60;0.95;;;;;;;;;;5088293;28;20036;-67
2021/12/06 03:16:28;;;;;;;0.60;0.30;;;;;;;;;;5089461;28;20047;-67
2021/12/06 03:18:55;;;;;;;1.45;0.60;;;;;;;;;;5087648;28;20366;-67
2021/12/06 03:21:22;;;;;;;2.30;0.90;;;;;;;;;;5081001;28;20032;-68
2021/12/06 03:23:48;;;;;;;1.08;0.50;;;;;;;;;;5087432;28;20107;-68
2021/12/06 03:26:14;;;;;;;0.50;0.30;;;;;;;;;;5071757;28;20031;-68
2021/12/06 03:28:42;;;;;;;0.45;0.30;;;;;;;;;;5090648;28;20028;-68
2021/12/06 03:31:08;;;;;;;1.48;0.55;;;;;;;;;;5070521;28;20548;-67
2021/12/06 03:33:35;;;;;;;1.50;0.70;;;;;;;;;;5087087;28;20047;-67
2021/12/06 03:36:02;;;;;;;2.28;1.23;;;;;;;;;;5087634;28;20029;-67
2021/12/06 03:38:28;;;;;;;3.90;1.42;;;;;;;;;;5087721;28;20487;-67
2021/12/06 03:40:54;;;;;;;2.05;0.80;;;;;;;;;;5073765;28;20032;-67
2021/12/06 03:43:20;;;;;;;1.83;0.90;;;;;;;;;;5087986;28;20137;-67
2021/12/06 03:45:46;;;;;;;1.42;0.65;;;;;;;;;;5087329;28;20086;-67
2021/12/06 03:48:12;;;;;;;1.48;0.85;;;;;;;;;;5087617;28;20031;-67
2021/12/06 03:50:38;;;;;;;2.55;0.80;;;;;;;;;;5079953;28;20366;-67
2021/12/06 03:53:04;;;;;;;1.92;0.80;;;;;;;;;;5089295;28;20148;-67
2021/12/06 03:55:31;;;;;;;1.90;1.00;;;;;;;;;;5088430;28;20141;-67
2021/12/06 03:57:57;;;;;;;1.77;0.80;;;;;;;;;;5087292;28;20073;-67
2021/12/06 04:00:23;;;;;;;2.53;0.98;;;;;;;;;;5088427;28;20399;-67
2021/12/06 04:02:49;;;;;;;1.75;0.75;;;;;;;;;;5087265;28;20030;-67
2021/12/06 04:05:15;;;;;;;2.28;0.82;;;;;;;;;;5070823;28;20032;-67
2021/12/06 04:07:41;;;;;;;1.20;0.70;;;;;;;;;;5090840;28;20024;-67
2021/12/06 04:10:08;;;;;;;2.17;0.82;;;;;;;;;;5076808;28;20033;-67
2021/12/06 04:12:34;;;;;;;3.25;1.30;;;;;;;;;;5081887;28;20485;-67
2021/12/06 04:15:00;;;;;;;1.70;1.00;;;;;;;;;;5087040;28;20032;-67
2021/12/06 04:17:26;;;;;;;2.92;0.90;;;;;;;;;;5086639;28;20732;-66
2021/12/06 04:19:53;;;;;;;0.70;0.43;;;;;;;;;;5082490;28;20020;-68
2021/12/06 04:22:19;;;;;;;1.10;0.70;;;;;;;;;;5089565;28;20032;-68
2021/12/06 04:24:46;;;;;;;5.88;1.20;;;;;;;;;;5089923;28;20060;-68
2021/12/06 04:27:15;;;;;;;1.98;0.63;;;;;;;;;;5090455;28;20046;-67
2021/12/06 04:29:46;;;;;;;1.88;0.68;;;;;;;;;;5091812;28;20024;-67
2021/12/06 04:32:12;;;;;;;2.10;0.90;;;;;;;;;;5090798;28;20032;-65
2021/12/06 04:34:38;;;;;;;3.03;1.30;;;;;;;;;;5088437;28;20055;-66
2021/12/06 04:37:05;;;;;;;0.95;0.70;;;;;;;;;;5087622;28;20062;-66
2021/12/06 04:39:31;;;;;;;1.20;0.73;;;;;;;;;;5086785;28;20024;-65
2021/12/06 04:41:57;;;;;;;1.20;0.65;;;;;;;;;;5089226;28;20052;-66
2021/12/06 04:44:24;;;;;;;1.38;0.80;;;;;;;;;;5080346;28;20446;-66
2021/12/06 04:46:50;;;;;;;5.15;1.85;;;;;;;;;;5093350;28;20032;-66
2021/12/06 04:49:16;;;;;;;5.57;2.40;;;;;;;;;;5087351;28;20200;-67
2021/12/06 04:51:53;;;;;;;2.40;0.88;;;;;;;;;;5090540;28;20119;-66
2021/12/06 04:54:20;;;;;;;6.57;2.28;;;;;;;;;;5089958;28;20489;-66
2021/12/06 04:56:48;;;;;;;3.03;1.30;;;;;;;;;;5090520;28;20157;-67
2021/12/06 04:59:14;;;;;;;2.55;0.80;;;;;;;;;;5074448;28;20281;-66
2021/12/06 05:01:41;;;;;;;1.27;0.50;;;;;;;;;;5093835;28;20020;-66
2021/12/06 05:04:11;;;;;;;1.40;0.60;;;;;;;;;;5089942;28;20031;-66
2021/12/06 05:06:38;;;;;;;0.70;0.20;;;;;;;;;;5089719;28;20028;-66
2021/12/06 05:09:08;;;;;;;0.70;0.43;;;;;;;;;;5087865;28;20025;-66
2021/12/06 05:11:34;;;;;;;1.40;0.90;;;;;;;;;;5076772;28;20027;-66
2021/12/06 05:14:03;;;;;;;1.60;1.00;;;;;;;;;;5092130;28;20094;-66
2021/12/06 05:16:30;;;;;;;2.92;1.10;;;;;;;;;;5091428;28;20024;-66
2021/12/06 05:18:56;;;;;;;1.30;0.70;;;;;;;;;;5089326;28;20111;-66
2021/12/06 05:21:22;;;;;;;1.50;0.57;;;;;;;;;;5082935;28;20119;-65
2021/12/06 05:23:48;;;;;;;1.10;0.90;;;;;;;;;;5088951;28;20035;-66
2021/12/06 05:26:15;;;;;;;1.17;0.70;;;;;;;;;;5089588;28;20016;-66
2021/12/06 05:28:43;;;;;;;1.90;0.70;;;;;;;;;;5092659;28;20020;-66
2021/12/06 05:31:15;;;;;;;1.33;0.50;;;;;;;;;;5091717;28;20023;-66
2021/12/06 05:33:45;;;;;;;1.25;0.60;;;;;;;;;;5086246;28;20465;-66
2021/12/06 05:36:11;;;;;;;1.08;0.40;;;;;;;;;;5085708;28;20483;-67
2021/12/06 05:38:37;;;;;;;2.40;0.90;;;;;;;;;;5091026;28;20115;-67
2021/12/06 05:41:03;;;;;;;2.30;1.10;;;;;;;;;;5084972;28;20362;-66
2021/12/06 05:43:29;;;;;;;1.95;0.90;;;;;;;;;;5087113;28;20058;-67
2021/12/06 05:45:55;;;;;;;3.63;0.85;;;;;;;;;;5089640;28;20489;-67
2021/12/06 05:48:21;;;;;;;0.77;0.52;;;;;;;;;;5091304;28;20492;-67
2021/12/06 05:50:48;;;;;;;0.73;0.50;;;;;;;;;;5088298;28;20048;-67
2021/12/06 05:53:14;;;;;;;0.63;0.40;;;;;;;;;;5088730;28;20044;-67
2021/12/06 05:55:41;;;;;;;1.13;0.30;;;;;;;;;;5091241;28;20031;-67
2021/12/06 05:58:08;;;;;;;0.75;0.40;;;;;;;;;;5089234;28;20484;-67
2021/12/06 06:00:35;;;;;;;2.58;1.25;;;;;;;;;;5088002;28;20469;-67
2021/12/06 06:03:03;;;;;;;4.07;1.67;;;;;;;;;;5084030;28;20111;-66
2021/12/06 06:05:29;;;;;;;3.33;1.00;;;;;;;;;;5090125;28;20028;-67
2021/12/06 06:07:55;;;;;;;2.38;1.02;;;;;;;;;;5090926;28;20039;-67
2021/12/06 06:10:21;;;;;;;1.95;0.98;;;;;;;;;;5091016;28;20031;-67
2021/12/06 06:12:47;;;;;;;0.70;0.57;;;;;;;;;;5088146;28;20032;-68
2021/12/06 06:15:13;;;;;;;0.95;0.43;;;;;;;;;;5089735;28;20098;-67
2021/12/06 06:17:43;;;;;;;2.00;0.90;;;;;;;;;;5090171;28;20032;-67
2021/12/06 06:20:16;;;;;;;1.90;1.05;;;;;;;;;;5086242;28;20031;-67
2021/12/06 06:22:42;;;;;;;1.08;0.70;;;;;;;;;;5073137;28;20077;-66
2021/12/06 06:25:08;;;;;;;1.60;0.90;;;;;;;;;;5087116;28;20028;-67
2021/12/06 06:27:34;;;;;;;2.55;1.20;;;;;;;;;;5089529;28;20502;-67
2021/12/06 06:30:00;;;;;;;3.53;1.52;;;;;;;;;;5088868;28;20028;-67
2021/12/06 06:32:26;;;;;;;1.98;1.00;;;;;;;;;;5089579;28;20416;-67
2021/12/06 06:34:52;;;;;;;1.85;0.80;;;;;;;;;;5088638;28;20359;-67
2021/12/06 06:37:18;;;;;;;1.92;1.20;;;;;;;;;;5090532;28;20062;-67
2021/12/06 06:39:44;;;;;;;7.93;3.17;;;;;;;;;;5089135;28;20148;-66
2021/12/06 06:42:10;;;;;;;8.18;3.55;;;;;;;;;;5087867;28;20031;-67
2021/12/06 06:44:36;;;;;;;5.25;2.40;;;;;;;;;;5089750;28;20356;-67
2021/12/06 06:47:02;;;;;;;3.67;2.08;;;;;;;;;;5089244;28;20103;-67
2021/12/06 06:49:31;;;;;;;6.72;2.72;;;;;;;;;;5087542;28;20054;-66
2021/12/06 06:51:57;;;;;;;8.52;3.70;;;;;;;;;;5087459;28;20073;-66
2021/12/06 06:54:23;;;;;;;10.85;3.80;;;;;;;;;;5087153;28;20032;-67
2021/12/06 06:56:50;;;;;;;11.32;3.72;;;;;;;;;;5087561;28;20012;-66
2021/12/06 06:59:16;;;;;;;16.70;6.30;;;;;;;;;;5087446;28;20039;-67
2021/12/06 07:01:44;;;;;;;18.60;6.60;;;;;;;;;;5072102;28;20028;-67
2021/12/06 07:04:10;;;;;;;18.08;6.65;;;;;;;;;;5087503;28;20027;-67
2021/12/06 07:06:36;;;;;;;10.85;4.55;;;;;;;;;;5088670;28;20138;-67
2021/12/06 07:09:03;;;;;;;10.50;4.20;;;;;;;;;;5086557;28;20107;-67
2021/12/06 07:11:29;;;;;;;13.60;5.22;;;;;;;;;;5075117;28;20020;-67
2021/12/06 07:13:55;;;;;;;10.80;4.55;;;;;;;;;;5090000;28;20035;-66
2021/12/06 07:16:22;;;;;;;13.65;5.50;;;;;;;;;;5088664;28;20095;-67
2021/12/06 07:18:48;;;;;;;13.25;5.15;;;;;;;;;;5084364;28;20534;-61
2021/12/06 07:21:14;;;;;;;10.82;4.00;;;;;;;;;;5079997;28;20111;-60
2021/12/06 07:23:41;;;;;;;10.88;4.15;;;;;;;;;;5089181;28;20032;-61
2021/12/06 07:26:11;;;;;;;11.90;5.38;;;;;;;;;;5088425;28;20039;-60
2021/12/06 07:28:38;;;;;;;13.50;5.60;;;;;;;;;;5088291;28;20103;-60
2021/12/06 07:31:06;;;;;;;12.57;4.57;;;;;;;;;;5080457;28;20039;-61
2021/12/06 07:33:33;;;;;;;13.60;5.55;;;;;;;;;;5086128;28;20031;-60
2021/12/06 07:35:59;;;;;;;12.95;4.88;;;;;;;;;;5086390;28;20553;-61
2021/12/06 07:38:25;;;;;;;15.57;4.95;;;;;;;;;;5086224;28;20037;-61
2021/12/06 07:40:51;;;;;;;11.90;5.38;;;;;;;;;;5054916;28;20078;-61
2021/12/06 07:43:20;;;;;;;11.13;5.28;;;;;;;;;;5087044;28;20100;-60
2021/12/06 07:45:47;;;;;;;10.65;4.20;;;;;;;;;;5086151;28;20024;-61
2021/12/06 07:48:13;;;;;;;11.23;4.82;;;;;;;;;;5085827;28;20032;-61
2021/12/06 07:50:39;;;;;;;8.35;2.85;;;;;;;;;;5078151;28;20079;-61
2021/12/06 07:53:06;;;;;;;7.47;3.33;;;;;;;;;;5087695;28;20036;-61
2021/12/06 07:55:34;;;;;;;11.48;4.65;;;;;;;;;;5088035;28;20028;-60
2021/12/06 07:58:00;;;;;;;;;;;;;;;;;;5086627;28;20039;-61
2021/12/06 08:00:28;;;;;;;12.02;4.88;;;;;;;;;;5089711;28;19912;-61
2021/12/06 08:02:54;;;;;;;12.15;5.57;;;;;;;;;;5088839;28;20024;-62
2021/12/06 08:05:30;;;;;;;10.80;4.80;;;;;;;;;;5090031;28;20044;-61
2021/12/06 08:07:56;;;;;;;8.70;4.57;;;;;;;;;;5087285;28;20078;-62
2021/12/06 08:10:22;;;;;;;12.82;6.10;;;;;;;;;;5078480;28;20057;-62
2021/12/06 08:12:48;;;;;;;14.80;6.65;;;;;;;;;;5085957;28;20493;-62
2021/12/06 08:15:14;;;;;;;13.88;6.38;;;;;;;;;;5088540;28;20328;-62
2021/12/06 08:17:40;;;;;;;10.77;5.30;;;;;;;;;;5089884;28;20111;-62
2021/12/06 08:20:08;;;;;;;12.38;5.85;;;;;;;;;;5085106;28;20045;-62
2021/12/06 08:22:34;;;;;;;9.73;4.23;;;;;;;;;;5091268;28;20016;-62
2021/12/06 08:25:00;;;;;;;8.10;3.40;;;;;;;;;;5091211;28;20051;-61
2021/12/06 08:27:26;;;;;;;10.55;5.85;;;;;;;;;;5090869;28;20109;-62
2021/12/06 08:29:52;;;;;;;6.30;3.25;;;;;;;;;;5086230;28;20024;-62
2021/12/06 08:32:18;;;;;;;7.88;3.70;;;;;;;;;;5089513;28;20047;-61
2021/12/06 08:34:45;;;;;;;10.95;4.95;;;;;;;;;;5091368;28;20032;-61
2021/12/06 08:37:11;;;;;;;9.45;4.57;;;;;;;;;;5091386;28;20027;-61
2021/12/06 08:39:38;;;;;;;10.80;5.22;;;;;;;;;;5085268;28;20024;-61
2021/12/06 08:42:04;;;;;;;14.05;4.85;;;;;;;;;;5080865;28;20031;-61
2021/12/06 08:44:30;;;;;;;12.88;5.63;;;;;;;;;;5088674;28;20106;-61
2021/12/06 08:46:56;;;;;;;13.40;6.57;;;;;;;;;;5092480;28;20024;-61
2021/12/06 08:49:22;;;;;;;14.23;6.13;;;;;;;;;;5087012;28;20101;-61
2021/12/06 08:51:50;;;;;;;15.38;7.00;;;;;;;;;;5087074;28;20119;-62
2021/12/06 08:54:18;;;;;;;12.43;6.25;;;;;;;;;;5089569;28;20145;-61
2021/12/06 08:56:44;;;;;;;13.30;6.10;;;;;;;;;;5068945;28;20086;-62
2021/12/06 08:59:10;;;;;;;11.77;5.90;;;;;;;;;;5089601;28;20481;-61
2021/12/06 09:01:37;;;;;;;10.60;5.90;;;;;;;;;;5093122;28;20060;-61
2021/12/06 09:04:08;;;;;;;11.45;5.72;;;;;;;;;;5090791;28;20028;-62
2021/12/06 09:06:34;;;;;;;11.52;5.43;;;;;;;;;;5066681;28;20119;-62
2021/12/06 09:09:01;;;;;;;8.68;4.20;;;;;;;;;;5088353;28;20513;-62
2021/12/06 09:11:27;;;;;;;8.15;4.40;;;;;;;;;;5074838;28;20081;-62
2021/12/06 09:13:53;;;;;;;8.68;3.90;;;;;;;;;;5092202;28;20043;-61
2021/12/06 09:16:19;;;;;;;6.97;3.33;;;;;;;;;;5091448;28;20029;-62
2021/12/06 09:18:45;;;;;;;6.88;2.92;;;;;;;;;;5089512;28;20031;-62
2021/12/06 09:21:14;;;;;;;6.32;2.72;;;;;;;;;;5082466;28;20508;-62
2021/12/06 09:23:41;;;;;;;5.75;2.65;;;;;;;;;;5089372;28;20073;-61
2021/12/06 09:26:07;;;;;;;6.93;3.03;;;;;;;;;;5090610;28;20042;-62
2021/12/06 09:28:33;;;;;;;5.40;2.42;;;;;;;;;;5090791;28;20101;-61
2021/12/06 09:31:01;;;;;;;5.68;2.80;;;;;;;;;;5090764;28;20054;-61
2021/12/06 09:33:28;;;;;;;2.47;1.48;;;;;;;;;;5089452;28;20119;-66
2021/12/06 09:35:58;;;;;;;3.75;2.03;;;;;;;;;;5091269;28;20016;-63
2021/12/06 09:38:28;;;;;;;5.72;2.58;;;;;;;;;;5088358;28;20036;-65
2021/12/06 09:40:55;;;;;;;5.10;2.55;;;;;;;;;;5075621;28;20039;-59
2021/12/06 09:43:21;;;;;;;4.00;2.05;;;;;;;;;;5090438;28;20044;-61
2021/12/06 09:45:48;;;;;;;5.20;2.20;;;;;;;;;;5088140;28;20022;-61
2021/12/06 09:48:16;;;;;;;5.57;2.40;;;;;;;;;;5088274;28;20496;-61
2021/12/06 09:50:44;;;;;;;6.35;3.08;;;;;;;;;;5079838;28;20089;-62
2021/12/06 09:53:12;;;;;;;4.93;2.90;;;;;;;;;;5089763;28;20490;-64
2021/12/06 09:55:38;;;;;;;5.88;2.65;;;;;;;;;;5077304;28;20231;-64
2021/12/06 09:58:05;;;;;;;4.22;2.05;;;;;;;;;;5086721;28;20036;-64
2021/12/06 10:00:33;;;;;;;4.82;1.98;;;;;;;;;;5089454;28;20077;-65
2021/12/06 10:02:59;;;;;;;3.67;1.77;;;;;;;;;;5089192;28;20111;-66
2021/12/06 10:05:27;;;;;;;4.47;1.65;;;;;;;;;;5088627;28;20024;-64
2021/12/06 10:07:57;;;;;;;2.47;1.25;;;;;;;;;;5091629;28;20107;-65
2021/12/06 10:10:23;;;;;;;1.48;0.88;;;;;;;;;;5079165;28;20094;-66
2021/12/06 10:12:52;;;;;;;4.25;1.25;;;;;;;;;;5084772;28;20392;-63
2021/12/06 10:15:19;;;;;;;3.80;1.30;;;;;;;;;;5088518;28;20024;-67
2021/12/06 10:17:45;;;;;;;3.30;1.58;;;;;;;;;;5089032;28;20032;-64
2021/12/06 10:20:11;;;;;;;1.85;0.95;;;;;;;;;;5081795;28;20415;-64
2021/12/06 10:22:38;;;;;;;2.10;0.95;;;;;;;;;;5090635;28;20020;-64
2021/12/06 10:25:05;;;;;;;1.95;1.20;;;;;;;;;;5088255;28;20032;-64
2021/12/06 10:27:32;;;;;;;1.73;0.90;;;;;;;;;;5088207;28;20393;-64
2021/12/06 10:30:03;;;;;;;1.50;1.00;;;;;;;;;;5089421;28;20485;-64
2021/12/06 10:32:33;;;;;;;1.52;0.90;;;;;;;;;;5088412;28;20111;-63
2021/12/06 10:35:06;;;;;;;1.52;0.60;;;;;;;;;;5089978;28;20392;-64
2021/12/06 10:37:35;;;;;;;0.52;0.40;;;;;;;;;;5090205;28;20035;-64
2021/12/06 10:40:01;;;;;;;3.47;0.50;;;;;;;;;;5077888;28;20115;-62
2021/12/06 10:42:27;;;;;;;0.68;0.50;;;;;;;;;;5082067;28;20388;-61
2021/12/06 10:44:53;;;;;;;1.42;0.65;;;;;;;;;;5089255;28;20032;-62
2021/12/06 10:47:19;;;;;;;2.75;1.08;;;;;;;;;;5088531;28;20046;-62
2021/12/06 10:49:47;;;;;;;2.58;0.90;;;;;;;;;;5083436;28;20048;-63
2021/12/06 10:52:26;;;;;;;1.77;0.80;;;;;;;;;;5089646;28;20024;-62
2021/12/06 10:54:53;;;;;;;0.85;0.65;;;;;;;;;;5087791;28;20040;-62
2021/12/06 10:57:20;;;;;;;1.55;0.70;;;;;;;;;;5087686;28;20020;-64
2021/12/06 10:59:46;;;;;;;1.42;0.60;;;;;;;;;;5077259;28;20043;-62
2021/12/06 11:02:13;;;;;;;1.08;0.70;;;;;;;;;;5070133;28;20477;-63
2021/12/06 11:04:40;;;;;;;1.02;0.60;;;;;;;;;;5090794;28;20062;-62
2021/12/06 11:07:08;;;;;;;0.73;0.55;;;;;;;;;;5076992;28;20032;-63
2021/12/06 11:09:42;;;;;;;1.20;0.57;;;;;;;;;;5075571;28;20539;-62
2021/12/06 11:12:09;;;;;;;0.80;0.57;;;;;;;;;;5077225;28;20249;-62
2021/12/06 11:14:37;;;;;;;0.70;0.40;;;;;;;;;;5086323;28;20714;-64
2021/12/06 11:17:13;;;;;;;4.35;2.63;;;;;;;;;;5089012;28;20462;-64
2021/12/06 11:19:39;;;;;;;2.10;1.20;;;;;;;;;;5083074;28;20025;-62
2021/12/06 11:22:16;;;;;;;1.52;0.60;;;;;;;;;;5084276;28;20052;-62
2021/12/06 11:24:45;;;;;;;0.73;0.22;;;;;;;;;;5086405;28;20039;-62
2021/12/06 11:27:32;;;;;;;0.57;0.38;;;;;;;;;;5086497;28;20028;-62
2021/12/06 11:30:03;;;;;;;2.67;1.58;;;;;;;;;;5087449;28;20153;-62
2021/12/06 11:32:35;;;;;;;1.00;0.80;;;;;;;;;;5085538;28;20031;-63
2021/12/06 11:35:04;;;;;;;1.02;0.60;;;;;;;;;;5091705;28;20115;-62
2021/12/06 11:37:30;;;;;;;1.17;0.50;;;;;;;;;;5091014;28;20053;-62
2021/12/06 11:40:05;;;;;;;1.52;0.30;;;;;;;;;;5086973;28;20107;-62
2021/12/06 11:42:31;;;;;;;0.10;0.10;;;;;;;;;;5088288;28;20016;-62
2021/12/06 11:44:57;;;;;;;0.13;0.08;;;;;;;;;;5086939;28;20085;-62
2021/12/06 11:47:23;;;;;;;0.10;0.10;;;;;;;;;;5087307;28;20060;-62
2021/12/06 11:49:53;;;;;;;0.20;0.10;;;;;;;;;;5085392;28;20104;-62
2021/12/06 11:52:22;;;;;;;0.57;0.50;;;;;;;;;;5086757;28;20073;-62
2021/12/06 11:54:48;;;;;;;;;;;;;;;;;;5086995;28;20039;-62
2021/12/06 11:57:19;;;;;;;1.67;0.13;;;;;;;;;;5085988;28;19907;-62
2021/12/06 11:59:46;;;;;;;0.00;0.00;;;;;;;;;;5084080;28;20081;-62
2021/12/06 12:02:12;;;;;;;0.00;0.00;;;;;;;;;;5085351;28;20028;-61
2021/12/06 12:04:38;;;;;;;0.00;0.00;;;;;;;;;;5085821;28;20025;-61
2021/12/06 12:07:07;;;;;;;0.20;0.00;;;;;;;;;;5087457;28;20507;-61
2021/12/06 12:09:40;;;;;;;0.10;0.10;;;;;;;;;;5083074;28;20032;-61
2021/12/06 12:12:08;;;;;;;0.08;0.08;;;;;;;;;;5082107;28;20046;-61
2021/12/06 12:14:34;;;;;;;0.00;0.00;;;;;;;;;;5090958;28;20032;-60
2021/12/06 12:17:01;;;;;;;0.28;0.10;;;;;;;;;;5093212;28;20380;-61
2021/12/06 12:19:28;;;;;;;0.57;0.20;;;;;;;;;;5087782;28;20024;-62
2021/12/06 12:21:54;;;;;;;0.20;0.10;;;;;;;;;;5087471;28;20024;-61
2021/12/06 12:24:20;;;;;;;0.03;0.03;;;;;;;;;;5090925;28;20091;-63
2021/12/06 12:26:58;;;;;;;0.65;0.20;;;;;;;;;;5090448;28;20024;-63
2021/12/06 12:29:27;;;;;;;0.88;0.30;;;;;;;;;;5076746;28;20481;-63
2021/12/06 12:31:56;;;;;;;0.10;0.10;;;;;;;;;;5090465;28;20016;-61
2021/12/06 12:34:23;;;;;;;0.45;0.10;;;;;;;;;;5093204;28;20153;-62
2021/12/06 12:36:49;;;;;;;0.10;0.10;;;;;;;;;;5092082;28;20422;-62
2021/12/06 12:39:20;;;;;;;0.47;0.20;;;;;;;;;;5087707;28;20444;-65
2021/12/06 12:42:00;;;;;;;0.40;0.28;;;;;;;;;;5078305;28;20028;-61
2021/12/06 12:44:40;;;;;;;0.10;0.10;;;;;;;;;;5075307;28;20052;-64
2021/12/06 12:47:13;;;;;;;0.75;0.45;;;;;;;;;;5091615;28;20500;-64
2021/12/06 12:49:43;;;;;;;0.30;0.17;;;;;;;;;;5082863;28;20043;-63
2021/12/06 12:52:09;;;;;;;1.20;0.40;;;;;;;;;;5089580;28;20032;-63
2021/12/06 12:54:35;;;;;;;0.45;0.28;;;;;;;;;;5090035;28;20454;-64
2021/12/06 12:57:05;;;;;;;4.25;2.03;;;;;;;;;;5090258;28;20032;-63
2021/12/06 13:00:01;;;;;;;3.17;1.77;;;;;;;;;;5090082;28;20024;-63
2021/12/06 13:02:33;;;;;;;0.50;0.50;;;;;;;;;;5073431;28;20458;-62
2021/12/06 13:04:59;;;;;;;0.22;0.10;;;;;;;;;;5092527;28;20032;-62
2021/12/06 13:07:30;;;;;;;0.40;0.10;;;;;;;;;;5090602;28;20017;-63
2021/12/06 13:09:57;;;;;;;0.73;0.60;;;;;;;;;;5080108;28;20032;-63
2021/12/06 13:12:23;;;;;;;0.43;0.40;;;;;;;;;;5082985;28;20027;-65
2021/12/06 13:14:55;;;;;;;0.20;0.20;;;;;;;;;;5089955;28;20043;-64
2021/12/06 13:17:34;;;;;;;0.20;0.15;;;;;;;;;;5074636;28;20427;-67
2021/12/06 13:20:11;;;;;;;0.20;0.00;;;;;;;;;;5083818;28;20028;-63
2021/12/06 13:22:51;;;;;;;0.30;0.20;;;;;;;;;;5092434;28;20539;-63
2021/12/06 13:25:19;;;;;;;0.00;0.00;;;;;;;;;;5090731;28;20393;-64
2021/12/06 13:27:52;;;;;;;0.00;0.00;;;;;;;;;;5090017;28;20108;-64
2021/12/06 13:30:31;;;;;;;0.95;0.10;;;;;;;;;;5091126;28;20488;-65
2021/12/06 13:33:02;;;;;;;0.20;0.17;;;;;;;;;;5089249;28;20032;-63
2021/12/06 13:35:58;;;;;;;0.50;0.10;;;;;;;;;;5091162;28;20028;-63
2021/12/06 13:38:30;;;;;;;0.03;0.00;;;;;;;;;;5053935;28;20033;-63
2021/12/06 13:40:56;;;;;;;0.10;0.10;;;;;;;;;;5075663;28;20032;-64
2021/12/06 13:43:45;;;;;;;0.30;0.20;;;;;;;;;;5090531;28;20439;-63
2021/12/06 13:46:19;;;;;;;0.45;0.10;;;;;;;;;;5089089;28;20075;-63
2021/12/06 13:48:47;;;;;;;0.93;0.35;;;;;;;;;;5067801;28;20519;-62
2021/12/06 13:51:31;;;;;;;0.05;0.05;;;;;;;;;;5082047;28;20016;-62
2021/12/06 13:54:03;;;;;;;0.30;0.20;;;;;;;;;;5088899;28;20028;-62
2021/12/06 13:56:46;;;;;;;0.63;0.25;;;;;;;;;;5088351;28;20386;-62
2021/12/06 13:59:14;;;;;;;0.60;0.32;;;;;;;;;;5090403;28;20033;-63
2021/12/06 14:01:45;;;;;;;;;;;;;;;;;;5092709;28;20093;-62
2021/12/06 14:04:13;;;;;;;0.13;0.13;;;;;;;;;;5088581;28;19908;-62
2021/12/06 14:06:44;;;;;;;0.10;0.10;;;;;;;;;;5088855;28;20036;-61
2021/12/06 14:09:10;;;;;;;0.20;0.20;;;;;;;;;;5086748;28;20052;-62
2021/12/06 14:11:36;;;;;;;0.90;0.10;;;;;;;;;;5075953;28;20133;-62
2021/12/06 14:14:06;;;;;;;1.00;0.20;;;;;;;;;;5090376;28;20032;-62
2021/12/06 14:16:33;;;;;;;0.68;0.22;;;;;;;;;;5090661;28;20024;-62
2021/12/06 14:18:59;;;;;;;0.63;0.30;;;;;;;;;;5087903;28;20090;-62
2021/12/06 14:21:25;;;;;;;0.47;0.38;;;;;;;;;;5080730;28;20024;-62
2021/12/06 14:23:51;;;;;;;0.10;0.10;;;;;;;;;;5097343;28;20028;-62
2021/12/06 14:26:17;;;;;;;1.48;0.50;;;;;;;;;;5085197;28;20076;-62
2021/12/06 14:28:47;;;;;;;1.40;0.70;;;;;;;;;;5085755;28;20097;-62
2021/12/06 14:31:13;;;;;;;0.57;0.40;;;;;;;;;;5089097;28;20028;-62
2021/12/06 14:33:39;;;;;;;0.75;0.35;;;;;;;;;;5086610;28;20039;-62
2021/12/06 14:36:08;;;;;;;0.28;0.20;;;;;;;;;;5088533;28;20048;-62
2021/12/06 14:38:34;;;;;;;1.42;0.70;;;;;;;;;;5087036;28;20020;-62
2021/12/06 14:41:01;;;;;;;0.60;0.40;;;;;;;;;;5087658;28;20024;-61
2021/12/06 14:43:28;;;;;;;0.43;0.30;;;;;;;;;;5088320;28;20436;-62
2021/12/06 14:46:00;;;;;;;1.55;0.43;;;;;;;;;;5086776;28;20031;-62
2021/12/06 14:48:27;;;;;;;0.90;0.20;;;;;;;;;;5085995;28;20039;-62
2021/12/06 14:53:34;;;;;;;1.02;0.63;;;;;;;;;;5086836;28;20040;-62
2021/12/06 14:58:39;;;;;;;1.73;0.68;;;;;;;;;;5089820;28;20110;-62
2021/12/06 15:01:09;;;;;;;0.47;0.40;;;;;;;;;;5089126;28;20066;-62
2021/12/06 15:03:40;;;;;;;0.73;0.52;;;;;;;;;;5087305;28;20527;-62
2021/12/06 15:06:07;;;;;;;0.50;0.40;;;;;;;;;;5087302;28;20097;-62
2021/12/06 15:08:37;;;;;;;0.32;0.30;;;;;;;;;;5087044;28;20020;-62